createdAt,value
2023-01-13T00:00:10.549Z,3.25
2023-01-13T00:02:37.613Z,3.90
2023-01-13T00:05:05.011Z,3.33
2023-01-13T00:07:32.043Z,2.40
2023-01-13T00:09:59.109Z,2.63
2023-01-13T00:12:26.145Z,6.43
2023-01-13T00:14:53.174Z,2.45
2023-01-13T00:17:20.201Z,1.63
2023-01-13T00:19:47.856Z,4.38
2023-01-13T00:22:14.898Z,2.47
2023-01-13T00:24:41.921Z,3.05
2023-01-13T00:27:08.945Z,2.85
2023-01-13T00:29:36.275Z,2.83
2023-01-13T00:32:03.362Z,2.50
2023-01-13T00:34:30.470Z,1.80
2023-01-13T00:36:57.936Z,4.15
2023-01-13T00:39:24.989Z,1.63
2023-01-13T00:42:10.931Z,0.70
2023-01-13T00:44:37.973Z,2.58
2023-01-13T00:47:05.032Z,2.58
2023-01-13T00:49:32.066Z,2.35
2023-01-13T00:51:59.084Z,0.75
2023-01-13T00:54:26.374Z,1.15
2023-01-13T00:56:53.418Z,3.22
2023-01-13T00:59:20.482Z,2.15
2023-01-13T01:01:47.579Z,4.68
2023-01-13T01:04:14.709Z,2.42
2023-01-13T01:06:41.732Z,1.35
2023-01-13T01:09:08.786Z,2.53
2023-01-13T01:11:36.042Z,2.47
2023-01-13T01:14:03.912Z,3.00
2023-01-13T01:16:31.309Z,2.58
2023-01-13T01:18:58.346Z,1.25
2023-01-13T01:21:25.734Z,3.65
2023-01-13T01:23:52.848Z,5.32
2023-01-13T01:26:21.746Z,2.88
2023-01-13T01:28:48.867Z,4.68
2023-01-13T01:31:20.019Z,1.73
2023-01-13T01:33:47.550Z,4.28
2023-01-13T01:36:14.921Z,1.35
2023-01-13T01:38:42.012Z,4.10
2023-01-13T01:41:09.965Z,2.83
2023-01-13T01:43:59.773Z,2.40
2023-01-13T01:46:28.066Z,0.90
2023-01-13T01:48:55.854Z,1.13
2023-01-13T01:51:22.912Z,3.83
2023-01-13T01:53:50.077Z,1.58
2023-01-13T01:56:17.114Z,1.55
2023-01-13T01:58:45.572Z,2.55
2023-01-13T02:01:13.359Z,5.53
2023-01-13T02:03:41.892Z,3.92
2023-01-13T02:06:08.931Z,2.20
2023-01-13T02:08:36.264Z,3.85
2023-01-13T02:11:03.339Z,3.08
2023-01-13T02:13:30.963Z,4.25
2023-01-13T02:16:04.296Z,2.38
2023-01-13T02:18:46.576Z,2.10
2023-01-13T02:21:25.637Z,3.85
2023-01-13T02:24:32.638Z,2.17
2023-01-13T02:27:06.479Z,3.17
2023-01-13T02:30:01.369Z,2.38
2023-01-13T02:32:46.731Z,4.75
2023-01-13T02:35:35.025Z,2.80
2023-01-13T02:38:02.118Z,3.05
2023-01-13T02:40:37.487Z,2.20
2023-01-13T02:43:28.347Z,1.73
2023-01-13T02:45:56.866Z,4.47
2023-01-13T02:48:23.965Z,1.50
2023-01-13T02:50:59.532Z,3.22
2023-01-13T02:53:31.394Z,1.77
2023-01-13T02:55:58.590Z,1.20
2023-01-13T02:58:26.848Z,2.45
2023-01-13T03:00:53.975Z,3.55
2023-01-13T03:03:21.841Z,2.90
2023-01-13T03:05:49.392Z,0.90
2023-01-13T03:08:22.640Z,4.10
2023-01-13T03:10:49.675Z,1.73
2023-01-13T03:13:35.489Z,1.02
2023-01-13T03:16:21.208Z,2.13
2023-01-13T03:18:48.311Z,0.65
2023-01-13T03:21:34.287Z,3.20
2023-01-13T03:24:08.552Z,1.33
2023-01-13T03:26:35.643Z,1.23
2023-01-13T03:29:23.020Z,2.33
2023-01-13T03:31:58.277Z,2.83
2023-01-13T03:34:26.344Z,1.42
2023-01-13T03:36:54.125Z,2.25
2023-01-13T03:39:22.885Z,1.00
2023-01-13T03:41:52.972Z,3.25
2023-01-13T03:44:24.565Z,0.70
2023-01-13T03:50:14.661Z,2.78
2023-01-13T03:52:46.192Z,2.53
2023-01-13T03:55:21.325Z,1.08
2023-01-13T03:57:57.745Z,2.25
2023-01-13T04:00:26.461Z,2.40
2023-01-13T04:02:55.197Z,1.10
2023-01-13T04:05:22.203Z,1.70
2023-01-13T04:07:55.656Z,2.25
2023-01-13T04:10:29.642Z,1.05
2023-01-13T04:13:00.966Z,0.35
2023-01-13T04:15:29.464Z,2.92
2023-01-13T04:18:02.215Z,2.92
2023-01-13T04:20:29.256Z,1.92
2023-01-13T04:22:56.312Z,0.30
2023-01-13T04:25:23.378Z,3.15
2023-01-13T04:27:50.436Z,1.80
2023-01-13T04:30:17.646Z,0.20
2023-01-13T04:32:44.678Z,1.25
2023-01-13T04:35:11.739Z,0.90
2023-01-13T04:37:38.779Z,1.02
2023-01-13T04:40:06.258Z,1.17
2023-01-13T04:42:33.292Z,1.00
2023-01-13T04:45:00.335Z,1.35
2023-01-13T04:47:27.366Z,1.45
2023-01-13T04:49:54.389Z,1.27
2023-01-13T04:52:21.396Z,1.98
2023-01-13T04:54:48.416Z,0.57
2023-01-13T04:57:15.487Z,1.00
2023-01-13T04:59:42.552Z,1.10
2023-01-13T05:02:09.831Z,2.70
2023-01-13T05:04:37.032Z,1.15
2023-01-13T05:07:04.599Z,2.45
2023-01-13T05:09:31.749Z,0.93
2023-01-13T05:12:17.343Z,0.93
2023-01-13T05:15:03.165Z,3.00
2023-01-13T05:17:30.205Z,2.97
2023-01-13T05:19:57.280Z,4.78
2023-01-13T05:22:42.859Z,2.33
2023-01-13T05:25:30.591Z,3.22
2023-01-13T05:27:58.516Z,4.55
2023-01-13T05:30:26.633Z,4.10
2023-01-13T05:32:53.758Z,2.10
2023-01-13T05:35:21.028Z,3.60
2023-01-13T05:37:48.252Z,3.20
2023-01-13T05:40:34.279Z,3.47
2023-01-13T05:43:28.037Z,5.35
2023-01-13T05:46:01.894Z,1.65
2023-01-13T05:48:29.925Z,3.75
2023-01-13T05:50:57.010Z,0.57
2023-01-13T05:53:24.335Z,3.30
2023-01-13T05:55:51.396Z,1.65
2023-01-13T05:58:18.835Z,3.85
2023-01-13T06:00:46.038Z,1.70
2023-01-13T06:03:13.159Z,0.93
2023-01-13T06:05:40.270Z,1.63
2023-01-13T06:08:07.762Z,4.90
2023-01-13T06:10:35.108Z,1.40
2023-01-13T06:13:02.185Z,2.17
2023-01-13T06:15:29.289Z,1.52
2023-01-13T06:17:57.099Z,1.83
2023-01-13T06:20:24.355Z,1.10
2023-01-13T06:22:51.729Z,0.75
2023-01-13T06:25:30.248Z,1.15
2023-01-13T06:27:57.430Z,3.13
2023-01-13T06:30:24.487Z,0.77
2023-01-13T06:32:53.213Z,5.82
2023-01-13T06:35:21.537Z,3.15
2023-01-13T06:37:48.856Z,1.52
2023-01-13T06:40:15.933Z,3.35
2023-01-13T06:43:01.984Z,1.50
2023-01-13T06:45:29.309Z,2.75
2023-01-13T06:47:58.454Z,1.60
2023-01-13T06:50:25.515Z,2.75
2023-01-13T06:52:52.544Z,3.30
2023-01-13T06:55:19.641Z,6.13
2023-01-13T06:57:53.583Z,5.28
2023-01-13T07:00:20.958Z,5.03
2023-01-13T07:02:48.150Z,7.45
2023-01-13T07:05:15.358Z,3.55
2023-01-13T07:07:42.456Z,4.45
2023-01-13T07:10:11.267Z,2.42
2023-01-13T07:12:56.827Z,5.20
2023-01-13T07:15:24.040Z,4.40
2023-01-13T07:17:51.417Z,7.45
2023-01-13T07:20:18.603Z,4.47
2023-01-13T07:22:45.770Z,4.30
2023-01-13T07:25:12.892Z,4.22
2023-01-13T07:27:40.015Z,3.30
2023-01-13T07:30:07.647Z,1.45
2023-01-13T07:32:34.804Z,4.57
2023-01-13T07:35:05.045Z,6.47
2023-01-13T07:37:33.245Z,3.58
2023-01-13T07:40:00.335Z,7.10
2023-01-13T07:42:46.117Z,5.68
2023-01-13T07:45:13.257Z,6.50
2023-01-13T07:47:40.410Z,3.38
2023-01-13T07:50:08.197Z,4.28
2023-01-13T07:52:35.304Z,2.83
2023-01-13T07:55:02.444Z,3.05
2023-01-13T07:57:29.570Z,3.10
2023-01-13T07:59:56.700Z,0.85
2023-01-13T08:02:24.253Z,5.90
2023-01-13T08:04:51.404Z,3.40
2023-01-13T08:07:18.784Z,5.80
2023-01-13T08:09:46.012Z,5.72
2023-01-13T08:12:31.510Z,7.43
2023-01-13T08:14:58.590Z,6.40
2023-01-13T08:17:25.753Z,6.45
2023-01-13T08:19:53.088Z,4.22
2023-01-13T08:22:20.132Z,6.15
2023-01-13T08:24:47.224Z,6.72
2023-01-13T08:27:14.249Z,3.65
2023-01-13T08:29:41.327Z,8.13
2023-01-13T08:32:08.360Z,3.13
2023-01-13T08:34:36.530Z,7.25
2023-01-13T08:37:03.640Z,3.08
2023-01-13T08:39:30.747Z,4.35
2023-01-13T08:41:58.677Z,4.20
2023-01-13T08:44:26.592Z,3.47
2023-01-13T08:46:53.730Z,4.68
2023-01-13T08:49:21.204Z,8.35
2023-01-13T08:51:48.346Z,7.75
2023-01-13T08:54:15.498Z,5.50
2023-01-13T08:56:42.935Z,2.67
2023-01-13T08:59:19.610Z,5.70
2023-01-13T09:01:47.069Z,4.65
2023-01-13T09:04:18.250Z,2.75
2023-01-13T09:06:45.374Z,6.63
2023-01-13T09:09:12.437Z,6.85
2023-01-13T09:11:59.253Z,2.50
2023-01-13T09:14:26.691Z,5.60
2023-01-13T09:16:53.808Z,3.05
2023-01-13T09:19:20.888Z,7.65
2023-01-13T09:21:48.075Z,3.90
2023-01-13T09:24:15.220Z,4.20
2023-01-13T09:26:42.274Z,5.72
2023-01-13T09:29:09.395Z,7.68
2023-01-13T09:31:36.452Z,5.93
2023-01-13T09:34:22.321Z,5.38
2023-01-13T09:36:49.379Z,4.30
2023-01-13T09:39:16.593Z,5.57
2023-01-13T09:42:25.355Z,3.63
2023-01-13T09:45:10.873Z,5.18
2023-01-13T09:48:07.281Z,5.95
2023-01-13T09:50:39.120Z,5.57
2023-01-13T09:53:06.905Z,4.07
2023-01-13T09:55:36.501Z,5.55
2023-01-13T09:58:04.037Z,6.53
2023-01-13T10:00:39.514Z,14.25
2023-01-13T10:03:19.337Z,10.00
2023-01-13T10:05:50.776Z,7.18
2023-01-13T10:08:22.692Z,4.57
2023-01-13T10:10:50.831Z,8.57
2023-01-13T10:13:22.251Z,7.60
2023-01-13T10:16:04.725Z,5.28
2023-01-13T10:18:50.516Z,6.20
2023-01-13T10:21:25.134Z,5.68
2023-01-13T10:24:01.302Z,9.60
2023-01-13T10:26:31.109Z,11.15
2023-01-13T10:28:58.251Z,6.90
2023-01-13T10:31:25.409Z,8.95
2023-01-13T10:33:59.509Z,6.22
2023-01-13T10:36:26.648Z,5.95
2023-01-13T10:38:53.772Z,7.30
2023-01-13T10:41:24.171Z,13.10
2023-01-13T10:44:06.363Z,9.55
2023-01-13T10:46:35.746Z,10.23
2023-01-13T10:49:03.970Z,8.15
2023-01-13T10:51:39.909Z,8.52
2023-01-13T10:54:12.990Z,7.97
2023-01-13T10:56:40.745Z,11.60
2023-01-13T10:59:24.063Z,14.00
2023-01-13T11:02:24.210Z,10.73
2023-01-13T11:04:55.061Z,13.57
2023-01-13T11:07:26.829Z,7.90
2023-01-13T11:10:10.612Z,10.98
2023-01-13T11:12:47.122Z,8.20
2023-01-13T11:15:15.689Z,8.02
2023-01-13T11:17:45.526Z,5.47
2023-01-13T11:20:12.643Z,11.95
2023-01-13T11:22:46.242Z,6.82
2023-01-13T11:25:24.094Z,10.60
2023-01-13T11:27:58.716Z,11.63
2023-01-13T11:30:25.811Z,7.25
2023-01-13T11:33:00.946Z,7.85
2023-01-13T11:35:27.955Z,7.18
2023-01-13T11:37:57.166Z,10.95
2023-01-13T11:40:43.892Z,9.48
2023-01-13T11:43:23.132Z,8.60
2023-01-13T11:45:51.149Z,9.48
2023-01-13T11:48:20.877Z,9.35
2023-01-13T11:51:06.859Z,5.72
2023-01-13T11:53:46.345Z,8.18
2023-01-13T11:56:24.494Z,7.88
2023-01-13T11:58:51.633Z,11.27
2023-01-13T12:01:23.264Z,10.50
2023-01-13T12:04:09.059Z,9.05
2023-01-13T12:06:36.600Z,8.32
2023-01-13T12:09:30.036Z,9.95
2023-01-13T12:12:19.728Z,11.93
2023-01-13T12:15:02.985Z,13.63
2023-01-13T12:17:43.978Z,8.23
2023-01-13T12:20:29.967Z,9.88
2023-01-13T12:22:57.421Z,12.25
2023-01-13T12:25:28.749Z,8.43
2023-01-13T12:28:00.228Z,6.68
2023-01-13T12:30:36.911Z,9.93
2023-01-13T12:33:07.632Z,12.75
2023-01-13T12:35:41.475Z,8.57
2023-01-13T12:38:10.089Z,15.15
2023-01-13T12:40:40.826Z,9.43
2023-01-13T12:43:42.335Z,8.07
2023-01-13T12:46:21.790Z,10.52
2023-01-13T12:48:54.796Z,12.02
2023-01-13T12:51:37.704Z,9.50
2023-01-13T12:54:40.268Z,11.43
2023-01-13T12:57:25.671Z,12.35
2023-01-13T13:00:01.711Z,14.90
2023-01-13T13:02:29.737Z,11.88
2023-01-13T13:04:57.610Z,9.27
2023-01-13T13:07:30.819Z,13.88
2023-01-13T13:10:06.370Z,15.35
2023-01-13T13:13:08.434Z,9.20
2023-01-13T13:15:35.825Z,12.77
2023-01-13T13:18:06.118Z,10.25
2023-01-13T13:20:53.841Z,8.15
2023-01-13T13:23:29.794Z,10.95
2023-01-13T13:26:00.183Z,9.48
2023-01-13T13:28:27.308Z,10.93
2023-01-13T13:30:57.681Z,11.63
2023-01-13T13:33:40.054Z,12.55
2023-01-13T13:36:31.977Z,17.65
2023-01-13T13:39:22.277Z,22.20
2023-01-13T13:44:58.418Z,7.95
2023-01-13T13:47:25.536Z,7.45
2023-01-13T13:49:54.577Z,11.18
2023-01-13T13:52:23.427Z,7.78
2023-01-13T13:54:54.524Z,8.60
2023-01-13T13:57:30.842Z,9.93
2023-01-13T13:59:58.505Z,8.15
2023-01-13T14:02:28.259Z,7.13
2023-01-13T14:05:07.370Z,7.07
2023-01-13T14:07:42.065Z,5.10
2023-01-13T14:10:13.013Z,6.95
2023-01-13T14:12:40.659Z,7.30
2023-01-13T14:15:27.678Z,5.28
2023-01-13T14:17:54.922Z,6.22
2023-01-13T14:20:22.001Z,7.28
2023-01-13T14:22:49.224Z,5.18
2023-01-13T14:25:32.708Z,8.43
2023-01-13T14:28:00.994Z,10.90
2023-01-13T14:30:28.110Z,5.93
2023-01-13T14:32:55.236Z,6.32
2023-01-13T14:35:22.315Z,9.75
2023-01-13T14:37:50.501Z,7.88
2023-01-13T14:40:36.176Z,4.63
2023-01-13T14:43:03.628Z,7.03
2023-01-13T14:45:33.107Z,8.65
2023-01-13T14:48:00.301Z,4.10
2023-01-13T14:50:31.399Z,8.10
2023-01-13T14:53:00.641Z,5.63
2023-01-13T14:55:27.775Z,7.65
2023-01-13T14:57:54.805Z,7.93
2023-01-13T15:00:23.820Z,10.38
2023-01-13T15:03:00.785Z,5.00
2023-01-13T15:05:27.936Z,5.13
2023-01-13T15:07:59.328Z,9.02
2023-01-13T15:10:30.338Z,6.72
2023-01-13T15:12:57.976Z,8.23
2023-01-13T15:15:37.595Z,6.40
2023-01-13T15:18:12.144Z,9.55
2023-01-13T15:20:39.353Z,8.15
2023-01-13T15:23:06.379Z,5.40
2023-01-13T15:25:37.069Z,9.93
2023-01-13T15:28:04.766Z,4.10
2023-01-13T15:30:31.792Z,4.13
2023-01-13T15:32:59.060Z,6.10
2023-01-13T15:35:26.972Z,7.28
2023-01-13T15:37:55.300Z,11.63
2023-01-13T15:40:40.944Z,9.38
2023-01-13T15:43:28.556Z,9.35
2023-01-13T15:46:14.188Z,12.20
2023-01-13T15:48:41.308Z,10.32
2023-01-13T15:51:10.415Z,7.43
2023-01-13T15:53:37.593Z,8.23
2023-01-13T15:56:04.735Z,5.10
2023-01-13T15:58:31.867Z,6.30
2023-01-13T16:00:59.071Z,8.32
2023-01-13T16:03:26.157Z,7.43
2023-01-13T16:05:53.256Z,7.70
2023-01-13T16:08:21.049Z,8.60
2023-01-13T16:10:48.187Z,6.45
2023-01-13T16:13:15.433Z,11.77
2023-01-13T16:15:43.431Z,7.10
2023-01-13T16:18:10.983Z,8.18
2023-01-13T16:20:38.033Z,12.05
2023-01-13T16:23:05.266Z,11.68
2023-01-13T16:25:32.286Z,10.27
2023-01-13T16:27:59.315Z,11.32
2023-01-13T16:30:27.431Z,8.77
2023-01-13T16:32:55.082Z,8.48
2023-01-13T16:35:22.432Z,12.45
2023-01-13T16:37:49.659Z,5.28
2023-01-13T16:40:24.081Z,4.38
2023-01-13T16:42:51.470Z,6.68
2023-01-13T16:45:18.684Z,6.03
2023-01-13T16:47:45.906Z,8.63
2023-01-13T16:50:20.856Z,5.65
2023-01-13T16:52:48.852Z,3.83
2023-01-13T16:55:15.983Z,4.15
2023-01-13T16:57:43.010Z,7.05
2023-01-13T17:00:12.981Z,7.70
2023-01-13T17:02:40.162Z,7.63
2023-01-13T17:05:07.521Z,9.30
2023-01-13T17:07:34.523Z,5.60
2023-01-13T17:10:01.593Z,3.88
2023-01-13T17:12:28.641Z,8.38
2023-01-13T17:14:55.699Z,7.53
2023-01-13T17:17:27.699Z,9.68
2023-01-13T17:19:54.791Z,10.63
2023-01-13T17:22:21.976Z,10.35
2023-01-13T17:24:49.043Z,14.40
2023-01-13T17:27:18.505Z,12.80
2023-01-13T17:29:45.756Z,9.38
2023-01-13T17:32:18.883Z,10.30
2023-01-13T17:34:46.117Z,10.07
2023-01-13T17:37:14.490Z,15.93
2023-01-13T17:39:43.468Z,9.52
2023-01-13T17:42:11.136Z,13.70
2023-01-13T17:44:38.319Z,15.02
2023-01-13T17:47:05.453Z,10.73
2023-01-13T17:49:32.475Z,16.00
2023-01-13T17:51:59.643Z,11.13
2023-01-13T17:54:26.983Z,12.27
2023-01-13T17:56:56.349Z,9.75
2023-01-13T17:59:24.330Z,8.30
2023-01-13T18:01:51.921Z,12.45
2023-01-13T18:04:20.285Z,7.45
2023-01-13T18:06:48.345Z,15.95
2023-01-13T18:09:15.639Z,13.25
2023-01-13T18:11:42.949Z,15.05
2023-01-13T18:14:10.065Z,10.80
2023-01-13T18:16:37.581Z,12.98
2023-01-13T18:19:23.275Z,8.88
2023-01-13T18:22:09.220Z,8.77
2023-01-13T18:24:54.787Z,14.23
2023-01-13T18:27:24.478Z,7.70
2023-01-13T18:29:52.347Z,10.37
2023-01-13T18:32:19.836Z,11.25
2023-01-13T18:34:47.946Z,14.98
2023-01-13T18:37:15.576Z,12.10
2023-01-13T18:39:42.652Z,14.98
2023-01-13T18:42:28.667Z,13.55
2023-01-13T18:44:57.697Z,9.38
2023-01-13T18:47:25.489Z,10.80
2023-01-13T18:49:52.542Z,10.25
2023-01-13T18:52:19.625Z,14.02
2023-01-13T18:54:47.377Z,10.02
2023-01-13T18:57:15.182Z,15.05
2023-01-13T18:59:42.313Z,9.68
2023-01-13T19:02:16.104Z,16.90
2023-01-13T19:04:43.260Z,8.93
2023-01-13T19:07:12.767Z,6.90
2023-01-13T19:09:41.939Z,10.73
2023-01-13T19:12:11.597Z,9.25
2023-01-13T19:14:38.770Z,9.33
2023-01-13T19:17:09.076Z,8.35
2023-01-13T19:19:55.283Z,15.23
2023-01-13T19:22:23.335Z,11.02
2023-01-13T19:24:50.735Z,10.15
2023-01-13T19:27:18.307Z,10.43
2023-01-13T19:29:52.395Z,10.32
2023-01-13T19:32:20.292Z,9.35
2023-01-13T19:34:49.183Z,8.90
2023-01-13T19:37:16.263Z,13.35
2023-01-13T19:39:43.351Z,11.27
2023-01-13T19:42:29.760Z,13.27
2023-01-13T19:45:15.359Z,11.80
2023-01-13T19:47:45.098Z,14.07
2023-01-13T19:50:12.174Z,12.90
2023-01-13T19:52:39.332Z,10.98
2023-01-13T19:55:06.698Z,14.25
2023-01-13T19:57:33.750Z,15.52
2023-01-13T20:00:00.836Z,23.25
2023-01-13T20:02:28.104Z,14.93
2023-01-13T20:04:56.114Z,8.57
2023-01-13T20:07:24.375Z,13.20
2023-01-13T20:09:52.268Z,11.88
2023-01-13T20:12:20.042Z,15.50
2023-01-13T20:14:47.745Z,12.23
2023-01-13T20:17:15.403Z,14.23
2023-01-13T20:19:42.928Z,18.50
2023-01-13T20:22:10.122Z,10.25
2023-01-13T20:24:37.256Z,16.10
2023-01-13T20:27:04.409Z,16.50
2023-01-13T20:29:31.554Z,15.93
2023-01-13T20:31:58.594Z,12.60
2023-01-13T20:34:25.780Z,30.50
2023-01-13T20:36:53.115Z,21.98
2023-01-13T20:39:21.395Z,20.75
2023-01-13T20:42:06.872Z,10.02
2023-01-13T20:44:34.048Z,15.85
2023-01-13T20:47:01.205Z,9.88
2023-01-13T20:49:28.358Z,12.38
2023-01-13T20:51:55.774Z,12.65
2023-01-13T20:54:23.141Z,8.88
2023-01-13T20:56:50.246Z,7.55
2023-01-13T20:59:17.301Z,9.20
2023-01-13T21:01:44.942Z,7.43
2023-01-13T21:04:12.033Z,7.38
2023-01-13T21:06:39.327Z,7.32
2023-01-13T21:09:06.385Z,5.28
2023-01-13T21:11:52.259Z,16.42
2023-01-13T21:14:38.997Z,6.82
2023-01-13T21:17:06.314Z,4.93
2023-01-13T21:19:33.453Z,8.55
2023-01-13T21:22:00.510Z,14.05
2023-01-13T21:24:27.768Z,12.05
2023-01-13T21:27:00.932Z,7.85
2023-01-13T21:29:27.985Z,8.80
2023-01-13T21:31:55.929Z,32.20
2023-01-13T21:34:23.001Z,12.48
2023-01-13T21:36:50.201Z,14.05
2023-01-13T21:39:17.219Z,16.92
2023-01-13T21:42:03.118Z,9.38
2023-01-13T21:44:53.581Z,11.77
2023-01-13T21:47:39.562Z,15.45
2023-01-13T21:50:12.912Z,12.60
2023-01-13T21:52:44.197Z,17.20
2023-01-13T21:55:19.946Z,11.60
2023-01-13T21:57:47.654Z,14.10
2023-01-13T22:00:14.981Z,12.23
2023-01-13T22:02:42.273Z,12.07
2023-01-13T22:05:10.123Z,14.95
2023-01-13T22:07:37.452Z,11.13
2023-01-13T22:10:05.254Z,12.80
2023-01-13T22:12:32.615Z,10.27
2023-01-13T22:14:59.631Z,10.70
2023-01-13T22:17:27.241Z,8.82
2023-01-13T22:19:54.871Z,16.42
2023-01-13T22:22:22.132Z,10.18
2023-01-13T22:24:49.823Z,12.43
2023-01-13T22:27:18.780Z,9.82
2023-01-13T22:29:46.327Z,12.80
2023-01-13T22:32:13.406Z,9.05
2023-01-13T22:34:40.590Z,15.48
2023-01-13T22:37:07.687Z,10.23
2023-01-13T22:39:34.764Z,9.95
2023-01-13T22:42:01.843Z,12.60
2023-01-13T22:44:29.090Z,9.02
2023-01-13T22:46:56.171Z,14.35
2023-01-13T22:49:23.273Z,10.18
2023-01-13T22:51:50.370Z,10.90
2023-01-13T22:54:17.748Z,12.30
2023-01-13T22:56:44.840Z,14.18
2023-01-13T22:59:13.102Z,9.25
2023-01-13T23:01:40.920Z,7.82
2023-01-13T23:04:08.188Z,7.90
2023-01-13T23:06:35.619Z,15.85
2023-01-13T23:09:02.688Z,10.70
2023-01-13T23:11:29.954Z,11.70
2023-01-13T23:13:58.476Z,11.15
2023-01-13T23:16:25.544Z,12.60
2023-01-13T23:18:52.610Z,22.63
2023-01-13T23:21:20.551Z,13.82
2023-01-13T23:23:47.639Z,13.82
2023-01-13T23:26:14.908Z,13.73
2023-01-13T23:28:41.934Z,10.60
2023-01-13T23:31:09.415Z,16.45
2023-01-13T23:33:41.362Z,13.65
2023-01-13T23:36:09.190Z,12.32
2023-01-13T23:38:36.279Z,17.10
2023-01-13T23:41:05.416Z,11.25
2023-01-13T23:43:32.458Z,11.45
2023-01-13T23:46:06.231Z,13.75
2023-01-13T23:48:33.478Z,9.23
2023-01-13T23:51:01.265Z,13.23
2023-01-13T23:53:33.412Z,14.10
2023-01-13T23:56:01.008Z,10.98
2023-01-13T23:58:28.420Z,8.02
